Route Details

Aircraft Information
Group: North America Fleet
Types: B738, B752, B762, B763
Route Data
Distance: 804nm
Duration: 2h 45m
Origin METAR: KIAD 010627Z 02008KT 5SM -RA BR FEW007 SCT010 OVC015 02/M01 A3019 RMK AO2 RAB25 P0000 T00171006
Dest. METAR: KMCI 010553Z 21006KT 10SM CLR M09/M16 A3036 RMK AO2 SLP294 T10891156 11050 21100 410221133 50002
Freight Data
(for Feb 1, 2023)
Load Factor:
36%
Manifested Cargo: 27,698lbs
Financial History
Total Freight: 38,439lbs
Average Load: 0lbs/flt
Fuel Used: 16,230lbs
Avg. Fuel Used: 0lbs/flt
Fuel Expense: $9,251
Avg. Fuel Expense: $0
Avg. Fuel Cost: $0/lbs
Total Gross Income: $100,710
Pilot Pay: $269
Total Expenses: $21,613
Total Revenue: $68,800
Average Revenue: $0

Capitol Logistics 365




KIAD
Washington Dulles International Airport
Dulles, Virginia
KMCI
Kansas City International Airport
Kansas City, Missouri

Activity Log

Date Flight Route Aircraft Duration
01/19/2023 CPX365 RNLDI4 OTTTO Q176 STL DCT RUDDH RUDDH1 B738 2h 39m